Time;durP1;ratioP1;P1;durP2;ratioP2;P2;SDS_P1;SDS_P2;PMS_P1;PMS_P2;Temp;Humidity;BMP_temperature;BMP_pressure;BME280_temperature;BME280_humidity;BME280_pressure;Samples;Min_cycle;Max_cycle;Signal;HPM_P1;HPM_P2
2023/04/27 00:01:39;;;;;;;5.57;3.10;;;;;;;;;;5030224;28;20651;-73
2023/04/27 00:04:06;;;;;;;5.00;2.50;;;;;;;;;;5031440;28;20492;-74
2023/04/27 00:06:33;;;;;;;4.87;2.90;;;;;;;;;;5031707;28;20210;-73
2023/04/27 00:08:59;;;;;;;5.00;3.00;;;;;;;;;;5029951;28;20558;-74
2023/04/27 00:11:26;;;;;;;5.07;3.00;;;;;;;;;;5025775;28;20565;-73
2023/04/27 00:13:52;;;;;;;4.87;3.10;;;;;;;;;;5029820;28;20186;-73
2023/04/27 00:16:18;;;;;;;6.07;2.63;;;;;;;;;;5029452;28;20244;-73
2023/04/27 00:18:44;;;;;;;4.30;2.10;;;;;;;;;;5027555;28;20282;-73
2023/04/27 00:21:10;;;;;;;6.13;2.70;;;;;;;;;;5031226;28;20179;-73
2023/04/27 00:23:37;;;;;;;3.77;2.67;;;;;;;;;;5012638;28;20179;-73
2023/04/27 00:26:03;;;;;;;4.00;2.50;;;;;;;;;;5031012;28;20206;-73
2023/04/27 00:28:29;;;;;;;6.20;2.70;;;;;;;;;;5030946;28;20182;-73
2023/04/27 00:30:58;;;;;;;3.90;2.63;;;;;;;;;;5029901;28;20189;-73
2023/04/27 00:33:26;;;;;;;5.17;2.90;;;;;;;;;;5026585;28;20187;-73
2023/04/27 00:35:52;;;;;;;5.03;2.80;;;;;;;;;;5023796;28;20300;-73
2023/04/27 00:38:20;;;;;;;5.13;2.70;;;;;;;;;;5030243;28;20178;-73
2023/04/27 00:40:46;;;;;;;7.97;3.50;;;;;;;;;;5028943;28;20209;-73
2023/04/27 00:43:14;;;;;;;6.03;3.60;;;;;;;;;;5029802;28;20178;-73
2023/04/27 00:45:43;;;;;;;7.20;3.70;;;;;;;;;;5030489;28;20198;-73
2023/04/27 00:48:12;;;;;;;5.60;3.53;;;;;;;;;;5030728;28;20182;-73
2023/04/27 00:50:40;;;;;;;3.87;3.40;;;;;;;;;;5029460;28;20179;-73
2023/04/27 00:53:06;;;;;;;5.87;3.70;;;;;;;;;;5029111;28;20643;-73
2023/04/27 00:55:32;;;;;;;5.93;3.70;;;;;;;;;;5027299;28;20621;-73
2023/04/27 00:57:58;;;;;;;5.03;3.63;;;;;;;;;;5029469;28;20212;-73
2023/04/27 01:00:25;;;;;;;4.93;3.40;;;;;;;;;;5029093;28;20189;-73
2023/04/27 01:02:52;;;;;;;6.37;3.60;;;;;;;;;;5028997;28;20653;-73
2023/04/27 01:05:18;;;;;;;7.67;3.87;;;;;;;;;;5026584;28;20554;-73
2023/04/27 01:07:46;;;;;;;4.67;3.70;;;;;;;;;;5027883;28;20182;-73
2023/04/27 01:10:12;;;;;;;6.20;4.20;;;;;;;;;;5008853;28;20182;-73
2023/04/27 01:12:38;;;;;;;7.90;4.53;;;;;;;;;;5028876;28;20228;-73
2023/04/27 01:15:08;;;;;;;7.13;4.07;;;;;;;;;;5026461;28;20214;-73
2023/04/27 01:17:34;;;;;;;6.17;4.00;;;;;;;;;;5030478;28;20206;-73
2023/04/27 01:20:01;;;;;;;5.83;4.07;;;;;;;;;;5029325;28;20181;-73
2023/04/27 01:22:27;;;;;;;6.47;3.80;;;;;;;;;;5030140;28;20178;-73
2023/04/27 01:24:53;;;;;;;5.83;3.90;;;;;;;;;;5027871;28;20890;-73
2023/04/27 01:27:19;;;;;;;4.60;3.70;;;;;;;;;;5030344;28;20667;-73
2023/04/27 01:29:45;;;;;;;5.50;3.80;;;;;;;;;;5032869;28;20792;-73
2023/04/27 01:32:12;;;;;;;6.80;3.70;;;;;;;;;;5034119;28;20607;-73
2023/04/27 01:34:38;;;;;;;6.30;3.70;;;;;;;;;;5032350;28;20198;-73
2023/04/27 01:37:04;;;;;;;7.73;4.90;;;;;;;;;;5033091;28;20242;-73
2023/04/27 01:39:30;;;;;;;6.33;4.33;;;;;;;;;;5032053;28;20186;-73
2023/04/27 01:41:56;;;;;;;5.43;3.67;;;;;;;;;;5034589;28;20542;-73
2023/04/27 01:44:23;;;;;;;6.43;4.03;;;;;;;;;;5028994;28;20218;-73
2023/04/27 01:46:49;;;;;;;6.73;4.03;;;;;;;;;;5031452;28;20217;-73
2023/04/27 01:49:16;;;;;;;6.10;4.00;;;;;;;;;;5034189;28;20560;-73
2023/04/27 01:51:42;;;;;;;6.60;3.80;;;;;;;;;;5034374;28;20178;-73
2023/04/27 01:54:08;;;;;;;4.87;3.40;;;;;;;;;;5031110;28;20202;-73
2023/04/27 01:56:35;;;;;;;7.00;4.10;;;;;;;;;;5034114;28;20242;-73
2023/04/27 01:59:01;;;;;;;5.27;3.80;;;;;;;;;;5032751;28;20498;-73
2023/04/27 02:01:27;;;;;;;5.27;3.93;;;;;;;;;;5032509;28;20658;-73
2023/04/27 02:03:54;;;;;;;8.90;4.00;;;;;;;;;;5032287;28;20233;-73
2023/04/27 02:06:20;;;;;;;6.37;4.13;;;;;;;;;;5032652;28;20693;-73
2023/04/27 02:08:46;;;;;;;5.77;3.80;;;;;;;;;;5030931;28;20233;-73
2023/04/27 02:11:12;;;;;;;5.87;3.63;;;;;;;;;;5032781;28;20325;-73
2023/04/27 02:13:38;;;;;;;5.40;3.50;;;;;;;;;;5032542;28;20700;-73
2023/04/27 02:16:05;;;;;;;5.60;4.13;;;;;;;;;;5032598;28;20311;-73
2023/04/27 02:18:32;;;;;;;6.27;3.70;;;;;;;;;;5033959;28;20245;-73
2023/04/27 02:20:58;;;;;;;4.83;3.97;;;;;;;;;;5025113;28;20657;-73
2023/04/27 02:23:24;;;;;;;5.87;4.23;;;;;;;;;;5032048;28;20299;-73
2023/04/27 02:25:51;;;;;;;5.27;3.40;;;;;;;;;;5028343;28;20210;-73
2023/04/27 02:28:17;;;;;;;4.63;3.50;;;;;;;;;;5014433;28;20187;-73
2023/04/27 02:30:43;;;;;;;5.57;3.73;;;;;;;;;;5032162;28;20186;-73
2023/04/27 02:33:12;;;;;;;9.03;4.53;;;;;;;;;;5032001;28;20270;-73
2023/04/27 02:35:38;;;;;;;4.67;4.13;;;;;;;;;;5032223;28;20206;-73
2023/04/27 02:38:05;;;;;;;5.43;3.90;;;;;;;;;;5031626;28;20187;-73
2023/04/27 02:40:31;;;;;;;12.03;4.40;;;;;;;;;;5021059;28;20187;-73
2023/04/27 02:42:57;;;;;;;6.10;3.80;;;;;;;;;;5032157;28;20220;-73
2023/04/27 02:45:23;;;;;;;5.73;4.20;;;;;;;;;;5033380;28;20194;-73
2023/04/27 02:47:50;;;;;;;6.13;3.93;;;;;;;;;;5031045;28;20278;-73
2023/04/27 02:50:16;;;;;;;5.90;4.07;;;;;;;;;;5031914;28;20186;-73
2023/04/27 02:52:42;;;;;;;6.07;4.00;;;;;;;;;;5031897;28;20247;-73
2023/04/27 02:55:08;;;;;;;4.37;3.43;;;;;;;;;;5030547;28;20201;-73
2023/04/27 02:57:34;;;;;;;6.20;3.83;;;;;;;;;;5031550;28;20245;-73
2023/04/27 03:00:00;;;;;;;5.67;3.47;;;;;;;;;;5033107;28;20190;-73
2023/04/27 03:02:27;;;;;;;4.70;3.30;;;;;;;;;;5032638;28;20278;-73
2023/04/27 03:04:56;;;;;;;5.30;3.50;;;;;;;;;;5031876;28;20175;-73
2023/04/27 03:07:23;;;;;;;5.63;3.50;;;;;;;;;;5030452;28;20953;-73
2023/04/27 03:09:49;;;;;;;5.50;3.43;;;;;;;;;;5030779;28;20183;-73
2023/04/27 03:12:15;;;;;;;4.77;3.50;;;;;;;;;;5025596;28;20213;-73
2023/04/27 03:14:42;;;;;;;5.17;3.63;;;;;;;;;;5031627;28;20209;-73
2023/04/27 03:17:08;;;;;;;7.33;3.40;;;;;;;;;;5031527;28;20211;-73
2023/04/27 03:19:34;;;;;;;5.70;3.73;;;;;;;;;;5031553;28;20182;-73
2023/04/27 03:22:00;;;;;;;5.27;3.50;;;;;;;;;;5032693;28;20214;-73
2023/04/27 03:24:26;;;;;;;8.73;3.73;;;;;;;;;;5032351;28;20229;-73
2023/04/27 03:26:53;;;;;;;5.83;3.90;;;;;;;;;;5031647;28;20210;-73
2023/04/27 03:29:20;;;;;;;4.60;3.60;;;;;;;;;;5031170;28;20208;-73
2023/04/27 03:31:46;;;;;;;6.87;3.70;;;;;;;;;;5032479;28;20261;-73
2023/04/27 03:34:12;;;;;;;5.57;3.60;;;;;;;;;;5032129;28;20533;-73
2023/04/27 03:36:39;;;;;;;5.77;3.50;;;;;;;;;;5024526;28;20589;-73
2023/04/27 03:39:05;;;;;;;5.67;3.10;;;;;;;;;;5032472;28;20189;-73
2023/04/27 03:41:31;;;;;;;4.20;3.70;;;;;;;;;;5030617;28;20217;-73
2023/04/27 03:43:57;;;;;;;4.87;3.20;;;;;;;;;;5011111;28;20215;-73
2023/04/27 03:46:23;;;;;;;4.33;3.40;;;;;;;;;;5026101;28;20566;-73
2023/04/27 03:48:49;;;;;;;4.53;3.10;;;;;;;;;;5029325;28;20191;-73
2023/04/27 03:51:17;;;;;;;4.83;3.77;;;;;;;;;;5027089;28;20266;-73
2023/04/27 03:53:45;;;;;;;5.40;3.43;;;;;;;;;;5030650;28;20265;-73
2023/04/27 03:56:11;;;;;;;8.73;3.60;;;;;;;;;;5029812;28;20694;-73
2023/04/27 03:58:37;;;;;;;5.77;3.33;;;;;;;;;;5030850;28;20213;-73
2023/04/27 04:01:17;;;;;;;4.50;3.23;;;;;;;;;;5031057;28;20274;-73
2023/04/27 04:03:46;;;;;;;5.53;3.67;;;;;;;;;;5028815;28;20179;-73
2023/04/27 04:06:12;;;;;;;4.93;3.73;;;;;;;;;;5030992;28;20285;-73
2023/04/27 04:08:38;;;;;;;5.73;3.50;;;;;;;;;;5030652;28;20628;-73
2023/04/27 04:11:04;;;;;;;3.83;3.43;;;;;;;;;;5030616;28;20190;-73
2023/04/27 04:13:31;;;;;;;3.97;3.47;;;;;;;;;;5030368;28;20598;-73
2023/04/27 04:16:04;;;;;;;6.17;3.43;;;;;;;;;;5022965;28;20773;-73
2023/04/27 04:18:30;;;;;;;5.87;3.43;;;;;;;;;;5014132;28;20638;-73
2023/04/27 04:20:57;;;;;;;4.03;2.83;;;;;;;;;;5030854;28;20281;-73
2023/04/27 04:23:23;;;;;;;5.53;3.63;;;;;;;;;;5030181;28;20505;-73
2023/04/27 04:25:50;;;;;;;5.10;3.70;;;;;;;;;;5007520;28;20751;-73
2023/04/27 04:28:16;;;;;;;5.23;3.30;;;;;;;;;;5030210;28;20208;-73
2023/04/27 04:30:43;;;;;;;4.17;3.30;;;;;;;;;;5030406;28;20202;-73
2023/04/27 04:33:09;;;;;;;6.53;3.70;;;;;;;;;;5029944;28;20211;-73
2023/04/27 04:35:40;;;;;;;5.70;3.60;;;;;;;;;;5024931;28;20237;-73
2023/04/27 04:38:08;;;;;;;5.57;3.60;;;;;;;;;;5030331;28;20568;-73
2023/04/27 04:40:34;;;;;;;6.60;3.80;;;;;;;;;;5029909;28;20182;-73
2023/04/27 04:43:03;;;;;;;6.10;3.70;;;;;;;;;;5029993;28;20228;-73
2023/04/27 04:45:30;;;;;;;4.60;3.70;;;;;;;;;;5029379;28;20207;-73
2023/04/27 04:47:59;;;;;;;5.17;4.03;;;;;;;;;;5003689;28;20245;-73
2023/04/27 04:50:25;;;;;;;5.03;4.23;;;;;;;;;;5010306;28;20874;-73
2023/04/27 04:52:51;;;;;;;4.60;3.60;;;;;;;;;;5010179;28;20183;-73
2023/04/27 04:55:18;;;;;;;5.57;3.70;;;;;;;;;;5021782;28;20228;-73
2023/04/27 04:57:44;;;;;;;6.57;3.77;;;;;;;;;;5012173;28;20218;-73
2023/04/27 05:00:12;;;;;;;9.90;4.30;;;;;;;;;;5029789;28;20269;-73
2023/04/27 05:02:39;;;;;;;6.27;4.10;;;;;;;;;;5030501;28;20673;-73
2023/04/27 05:05:05;;;;;;;5.93;4.10;;;;;;;;;;5031068;28;20190;-73
2023/04/27 05:07:32;;;;;;;6.60;4.00;;;;;;;;;;5025053;28;20666;-73
2023/04/27 05:09:58;;;;;;;5.97;4.50;;;;;;;;;;5028814;28;20723;-73
2023/04/27 05:12:24;;;;;;;6.13;4.03;;;;;;;;;;5030828;28;20260;-73
2023/04/27 05:14:52;;;;;;;6.77;4.20;;;;;;;;;;5031627;28;20235;-73
2023/04/27 05:17:18;;;;;;;10.73;5.07;;;;;;;;;;5030057;28;20242;-73
2023/04/27 05:19:44;;;;;;;10.47;5.17;;;;;;;;;;5029622;28;20217;-73
2023/04/27 05:22:10;;;;;;;9.03;5.43;;;;;;;;;;5029415;28;20282;-73
2023/04/27 05:24:37;;;;;;;7.50;5.37;;;;;;;;;;5027669;28;21143;-73
2023/04/27 05:27:03;;;;;;;7.67;5.30;;;;;;;;;;5030925;28;20217;-73
2023/04/27 05:29:29;;;;;;;7.47;5.90;;;;;;;;;;5029591;28;20178;-73
2023/04/27 05:31:56;;;;;;;8.23;5.43;;;;;;;;;;5030745;28;20181;-73
2023/04/27 05:34:22;;;;;;;7.77;5.00;;;;;;;;;;5029291;28;20206;-73
2023/04/27 05:36:48;;;;;;;7.50;4.87;;;;;;;;;;5021392;28;20217;-73
2023/04/27 05:39:14;;;;;;;7.93;4.93;;;;;;;;;;5031092;28;20179;-73
2023/04/27 05:41:40;;;;;;;7.67;4.70;;;;;;;;;;5022217;28;20193;-73
2023/04/27 05:44:07;;;;;;;7.03;4.77;;;;;;;;;;5030363;28;20556;-73
2023/04/27 05:46:33;;;;;;;6.60;5.10;;;;;;;;;;5020640;28;20215;-73
2023/04/27 05:48:59;;;;;;;7.67;4.87;;;;;;;;;;5026774;28;20568;-75
2023/04/27 05:51:25;;;;;;;6.07;4.47;;;;;;;;;;5029780;28;20257;-74
2023/04/27 05:53:54;;;;;;;8.50;4.77;;;;;;;;;;5030150;28;20182;-73
2023/04/27 05:56:21;;;;;;;6.80;4.50;;;;;;;;;;5027642;28;20214;-73
2023/04/27 05:58:47;;;;;;;6.33;4.60;;;;;;;;;;5025192;28;20240;-73
2023/04/27 06:01:14;;;;;;;4.90;4.40;;;;;;;;;;5029336;28;20179;-72
2023/04/27 06:03:40;;;;;;;7.10;5.30;;;;;;;;;;5030725;28;20175;-74
2023/04/27 06:06:06;;;;;;;8.33;5.43;;;;;;;;;;5027814;28;20272;-73
2023/04/27 06:08:36;;;;;;;6.67;4.70;;;;;;;;;;5022592;28;20218;-73
2023/04/27 06:11:02;;;;;;;5.93;4.53;;;;;;;;;;5024604;28;20650;-73
2023/04/27 06:13:28;;;;;;;6.30;4.17;;;;;;;;;;5022709;28;20183;-73
2023/04/27 06:15:55;;;;;;;9.83;4.97;;;;;;;;;;5025478;28;20214;-73
2023/04/27 06:18:21;;;;;;;7.67;5.10;;;;;;;;;;5028853;28;20773;-73
2023/04/27 06:20:47;;;;;;;9.77;5.40;;;;;;;;;;5032805;28;20206;-74
2023/04/27 06:23:13;;;;;;;5.90;4.53;;;;;;;;;;5026320;28;20191;-74
2023/04/27 06:25:39;;;;;;;8.03;5.13;;;;;;;;;;5022629;28;20277;-74
2023/04/27 06:28:06;;;;;;;9.53;4.90;;;;;;;;;;5034076;28;20179;-75
2023/04/27 06:30:32;;;;;;;9.90;5.10;;;;;;;;;;5032880;28;20277;-74
2023/04/27 06:32:58;;;;;;;5.40;4.77;;;;;;;;;;5031227;28;20301;-75
2023/04/27 06:35:24;;;;;;;8.57;5.60;;;;;;;;;;5026390;28;20257;-74
2023/04/27 06:37:50;;;;;;;9.57;5.53;;;;;;;;;;5025268;28;20294;-75
2023/04/27 06:40:17;;;;;;;7.60;5.60;;;;;;;;;;5019749;28;20247;-75
2023/04/27 06:42:43;;;;;;;7.37;5.70;;;;;;;;;;5023319;28;20270;-75
2023/04/27 06:45:10;;;;;;;9.97;6.23;;;;;;;;;;5023136;28;20182;-74
2023/04/27 06:47:36;;;;;;;8.07;5.73;;;;;;;;;;5027944;28;20181;-75
2023/04/27 06:50:03;;;;;;;9.77;5.80;;;;;;;;;;5031083;28;20195;-75
2023/04/27 06:52:32;;;;;;;8.83;5.70;;;;;;;;;;5029287;28;20186;-75
2023/04/27 06:54:58;;;;;;;12.13;6.20;;;;;;;;;;5015048;28;20222;-75
2023/04/27 06:57:24;;;;;;;8.43;5.93;;;;;;;;;;5027072;28;20207;-75
2023/04/27 06:59:51;;;;;;;10.10;6.03;;;;;;;;;;5021115;28;20494;-75
2023/04/27 07:02:17;;;;;;;8.27;5.90;;;;;;;;;;5027189;28;20190;-75
2023/04/27 07:04:43;;;;;;;6.73;5.33;;;;;;;;;;5029277;28;20183;-75
2023/04/27 07:07:09;;;;;;;8.33;5.63;;;;;;;;;;5027329;28;20206;-75
2023/04/27 07:09:36;;;;;;;6.50;5.10;;;;;;;;;;5026194;28;20316;-76
2023/04/27 07:12:02;;;;;;;7.00;4.50;;;;;;;;;;5024206;28;20632;-75
2023/04/27 07:14:29;;;;;;;9.97;6.10;;;;;;;;;;5030584;28;20269;-75
2023/04/27 07:16:55;;;;;;;7.83;5.23;;;;;;;;;;5026873;28;20211;-77
2023/04/27 07:19:22;;;;;;;9.23;5.60;;;;;;;;;;5030183;28;20664;-75
2023/04/27 07:21:49;;;;;;;10.73;6.20;;;;;;;;;;5027652;28;20179;-74
2023/04/27 07:24:15;;;;;;;11.47;5.97;;;;;;;;;;5028623;28;20705;-74
2023/04/27 07:26:41;;;;;;;9.13;5.40;;;;;;;;;;5022878;28;20214;-75
2023/04/27 07:29:08;;;;;;;8.23;5.93;;;;;;;;;;5031441;28;20812;-75
2023/04/27 07:31:35;;;;;;;8.30;5.27;;;;;;;;;;5032511;28;20673;-74
2023/04/27 07:34:01;;;;;;;9.47;6.43;;;;;;;;;;5032458;28;20178;-75
2023/04/27 07:36:27;;;;;;;7.20;5.67;;;;;;;;;;5026420;28;20268;-75
2023/04/27 07:38:54;;;;;;;8.30;5.97;;;;;;;;;;5022869;28;20266;-75
2023/04/27 07:41:22;;;;;;;7.80;5.77;;;;;;;;;;5027082;28;20266;-75
2023/04/27 07:43:48;;;;;;;8.13;6.30;;;;;;;;;;5031793;28;20193;-76
2023/04/27 07:46:15;;;;;;;8.73;5.47;;;;;;;;;;5028144;28;20213;-76
2023/04/27 07:48:41;;;;;;;9.30;5.77;;;;;;;;;;5027955;28;20186;-75
2023/04/27 07:51:07;;;;;;;7.83;5.60;;;;;;;;;;5031368;28;20231;-76
2023/04/27 07:53:35;;;;;;;7.13;5.40;;;;;;;;;;5027449;28;20206;-73
2023/04/27 07:56:02;;;;;;;6.60;4.93;;;;;;;;;;5029120;28;20301;-75
2023/04/27 07:58:28;;;;;;;6.97;4.70;;;;;;;;;;5027743;28;20274;-75
2023/04/27 08:00:54;;;;;;;7.27;5.20;;;;;;;;;;5027970;28;20182;-74
2023/04/27 08:03:21;;;;;;;5.80;4.73;;;;;;;;;;5035783;28;20170;-74
2023/04/27 08:05:47;;;;;;;8.43;4.93;;;;;;;;;;5030142;28;20194;-75
2023/04/27 08:08:13;;;;;;;6.43;5.20;;;;;;;;;;5022506;28;20189;-75
2023/04/27 08:10:41;;;;;;;6.33;4.83;;;;;;;;;;5030076;28;20178;-74
2023/04/27 08:13:08;;;;;;;9.07;4.90;;;;;;;;;;5029105;28;20186;-75
2023/04/27 08:15:35;;;;;;;7.83;4.53;;;;;;;;;;5030394;28;20305;-75
2023/04/27 08:18:01;;;;;;;5.57;4.57;;;;;;;;;;5028733;28;20827;-74
2023/04/27 08:20:28;;;;;;;7.10;4.70;;;;;;;;;;5024423;28;20312;-75
2023/04/27 08:22:54;;;;;;;7.77;4.87;;;;;;;;;;5030798;28;20201;-75
2023/04/27 08:25:20;;;;;;;7.63;4.23;;;;;;;;;;4988483;28;20194;-74
2023/04/27 08:27:46;;;;;;;6.27;4.23;;;;;;;;;;5030112;28;20547;-74
2023/04/27 08:30:13;;;;;;;7.53;4.63;;;;;;;;;;5025645;28;20832;-74
2023/04/27 08:32:39;;;;;;;7.23;4.63;;;;;;;;;;5027107;28;20182;-74
2023/04/27 08:35:06;;;;;;;6.30;4.47;;;;;;;;;;5026772;28;20218;-74
2023/04/27 08:37:32;;;;;;;9.33;5.27;;;;;;;;;;5027706;28;20614;-74
2023/04/27 08:39:58;;;;;;;6.03;4.20;;;;;;;;;;5030861;28;20260;-74
2023/04/27 08:42:24;;;;;;;6.70;4.60;;;;;;;;;;5027412;28;20593;-74
2023/04/27 08:44:51;;;;;;;5.97;3.87;;;;;;;;;;5026034;28;20233;-74
2023/04/27 08:47:17;;;;;;;4.47;3.53;;;;;;;;;;5024549;28;20202;-74
2023/04/27 08:49:43;;;;;;;6.43;4.03;;;;;;;;;;5026901;28;20186;-74
2023/04/27 08:52:15;;;;;;;5.00;3.70;;;;;;;;;;5024164;28;20179;-74
2023/04/27 08:54:42;;;;;;;6.27;4.00;;;;;;;;;;5024380;28;20275;-75
2023/04/27 08:57:12;;;;;;;5.83;3.77;;;;;;;;;;5027026;28;20238;-74
2023/04/27 08:59:39;;;;;;;5.50;3.87;;;;;;;;;;5029366;28;20187;-75
2023/04/27 09:02:05;;;;;;;7.83;4.07;;;;;;;;;;5025573;28;20175;-75
2023/04/27 09:04:41;;;;;;;6.10;4.50;;;;;;;;;;5020471;28;20647;-74
2023/04/27 09:07:14;;;;;;;8.57;4.27;;;;;;;;;;5035572;28;20622;-75
2023/04/27 09:09:40;;;;;;;8.10;4.23;;;;;;;;;;5021467;28;20182;-74
2023/04/27 09:12:14;;;;;;;9.47;4.60;;;;;;;;;;5022967;28;20189;-76
2023/04/27 09:14:41;;;;;;;9.10;4.80;;;;;;;;;;5027112;28;20723;-75
2023/04/27 09:17:08;;;;;;;7.47;4.37;;;;;;;;;;5027322;28;20206;-75
2023/04/27 09:19:34;;;;;;;8.20;4.50;;;;;;;;;;5027248;28;20185;-75
2023/04/27 09:22:04;;;;;;;5.53;4.40;;;;;;;;;;5030660;28;20240;-75
2023/04/27 09:24:30;;;;;;;8.77;4.30;;;;;;;;;;5049129;28;20697;-76
2023/04/27 09:26:56;;;;;;;6.77;4.40;;;;;;;;;;5014604;28;20217;-74
2023/04/27 09:29:33;;;;;;;6.20;5.20;;;;;;;;;;5028584;28;20233;-74
2023/04/27 09:31:59;;;;;;;6.90;4.50;;;;;;;;;;5023104;28;20176;-76
2023/04/27 09:34:25;;;;;;;8.37;4.97;;;;;;;;;;5024270;28;20186;-74
2023/04/27 09:36:52;;;;;;;8.50;5.20;;;;;;;;;;5030193;28;20221;-75
2023/04/27 09:39:19;;;;;;;7.33;4.70;;;;;;;;;;5029791;28;20183;-75
2023/04/27 09:41:45;;;;;;;7.47;4.60;;;;;;;;;;5030994;28;20197;-75
2023/04/27 09:44:12;;;;;;;7.60;4.87;;;;;;;;;;5030781;28;20317;-74
2023/04/27 09:46:38;;;;;;;5.90;4.90;;;;;;;;;;5029766;28;20270;-75
2023/04/27 09:49:04;;;;;;;7.23;4.40;;;;;;;;;;5029700;28;20205;-75
2023/04/27 09:51:31;;;;;;;6.50;4.50;;;;;;;;;;5029938;28;20187;-75
2023/04/27 09:53:58;;;;;;;7.17;5.03;;;;;;;;;;5023993;28;20186;-75
2023/04/27 09:56:33;;;;;;;7.30;4.87;;;;;;;;;;5020263;28;20242;-76
2023/04/27 09:59:18;;;;;;;6.37;4.30;;;;;;;;;;5017796;28;20210;-76
2023/04/27 10:01:50;;;;;;;9.03;4.80;;;;;;;;;;5026607;28;20182;-75
2023/04/27 10:04:43;;;;;;;5.67;4.70;;;;;;;;;;5039440;28;20193;-74
2023/04/27 10:07:13;;;;;;;6.77;4.23;;;;;;;;;;5023157;28;20207;-75
2023/04/27 10:09:45;;;;;;;5.40;4.20;;;;;;;;;;5026260;28;20532;-75
2023/04/27 10:12:27;;;;;;;7.67;4.90;;;;;;;;;;5027326;28;20212;-75
2023/04/27 10:14:55;;;;;;;6.93;4.60;;;;;;;;;;5024538;28;20190;-77
2023/04/27 10:17:25;;;;;;;6.13;5.00;;;;;;;;;;5040323;28;20304;-76
2023/04/27 10:19:56;;;;;;;6.80;4.27;;;;;;;;;;5030412;28;20251;-76
2023/04/27 10:22:22;;;;;;;6.30;4.73;;;;;;;;;;5024486;28;20221;-76
2023/04/27 10:24:50;;;;;;;8.83;5.00;;;;;;;;;;5022775;28;20268;-75
2023/04/27 10:27:21;;;;;;;8.73;4.47;;;;;;;;;;5019735;28;20566;-75
2023/04/27 10:29:48;;;;;;;6.93;4.57;;;;;;;;;;5025274;28;20278;-77
2023/04/27 10:32:22;;;;;;;6.03;4.10;;;;;;;;;;5021151;28;20713;-75
2023/04/27 10:34:48;;;;;;;5.40;3.80;;;;;;;;;;5028385;28;20210;-76
2023/04/27 10:37:15;;;;;;;6.27;3.40;;;;;;;;;;5020453;28;20224;-75
2023/04/27 10:39:43;;;;;;;6.30;3.20;;;;;;;;;;5030106;28;20190;-76
2023/04/27 10:42:10;;;;;;;7.10;4.00;;;;;;;;;;5024581;28;20182;-76
2023/04/27 10:44:37;;;;;;;6.77;4.27;;;;;;;;;;5025576;28;20189;-75
2023/04/27 10:47:18;;;;;;;5.50;3.70;;;;;;;;;;5013512;28;20698;-75
2023/04/27 10:49:45;;;;;;;5.83;3.77;;;;;;;;;;5018478;28;20195;-76
2023/04/27 10:52:11;;;;;;;8.03;4.13;;;;;;;;;;5021985;28;20241;-72
2023/04/27 10:54:38;;;;;;;6.10;3.20;;;;;;;;;;5023488;28;20229;-73
2023/04/27 10:57:09;;;;;;;6.30;3.20;;;;;;;;;;5020276;28;20223;-73
2023/04/27 10:59:36;;;;;;;5.70;3.50;;;;;;;;;;5019988;28;20541;-72
2023/04/27 11:02:02;;;;;;;6.27;2.80;;;;;;;;;;5027739;28;20190;-73
2023/04/27 11:04:39;;;;;;;7.53;3.07;;;;;;;;;;5026546;28;20301;-73
2023/04/27 11:07:07;;;;;;;5.47;3.10;;;;;;;;;;5023329;28;20679;-72
2023/04/27 11:09:35;;;;;;;3.50;2.50;;;;;;;;;;5025978;28;20191;-73
2023/04/27 11:12:02;;;;;;;6.47;3.00;;;;;;;;;;5028255;28;22165;-72
2023/04/27 11:14:28;;;;;;;4.13;2.60;;;;;;;;;;5027164;28;20205;-73
2023/04/27 11:16:54;;;;;;;4.27;2.70;;;;;;;;;;5027536;28;20218;-73
2023/04/27 11:19:21;;;;;;;4.20;2.60;;;;;;;;;;5019944;28;20262;-73
2023/04/27 11:21:47;;;;;;;6.13;3.00;;;;;;;;;;5018924;28;20179;-73
2023/04/27 11:24:13;;;;;;;4.47;2.80;;;;;;;;;;5030626;28;20206;-73
2023/04/27 11:26:39;;;;;;;4.70;2.90;;;;;;;;;;5016004;28;20213;-73
2023/04/27 11:29:12;;;;;;;6.37;2.93;;;;;;;;;;5015214;28;20569;-73
2023/04/27 11:31:39;;;;;;;4.57;2.47;;;;;;;;;;5023573;28;20612;-73
2023/04/27 11:34:09;;;;;;;4.77;2.60;;;;;;;;;;5025983;28;21313;-73
2023/04/27 11:36:36;;;;;;;4.47;2.80;;;;;;;;;;5035894;28;20207;-73
2023/04/27 11:39:05;;;;;;;9.33;3.00;;;;;;;;;;5032154;28;20629;-73
2023/04/27 11:41:34;;;;;;;6.23;2.93;;;;;;;;;;5021250;28;20282;-73
2023/04/27 11:44:05;;;;;;;5.03;3.10;;;;;;;;;;5020397;28;20182;-73
2023/04/27 11:46:31;;;;;;;4.93;2.40;;;;;;;;;;5024777;28;20285;-73
2023/04/27 11:49:01;;;;;;;5.53;2.70;;;;;;;;;;5022697;28;20190;-72
2023/04/27 11:51:29;;;;;;;5.07;2.50;;;;;;;;;;5021737;28;20510;-72
2023/04/27 11:53:55;;;;;;;3.67;2.23;;;;;;;;;;5023950;28;20597;-72
2023/04/27 11:56:21;;;;;;;6.73;2.93;;;;;;;;;;5012183;28;20215;-72
2023/04/27 11:58:47;;;;;;;5.37;2.80;;;;;;;;;;5019032;28;20270;-72
2023/04/27 12:01:13;;;;;;;4.80;2.50;;;;;;;;;;5027347;28;20182;-73
2023/04/27 12:03:40;;;;;;;4.70;2.60;;;;;;;;;;5024988;28;20176;-73
2023/04/27 12:06:06;;;;;;;7.53;2.57;;;;;;;;;;5020157;28;20242;-74
2023/04/27 12:08:32;;;;;;;4.67;2.70;;;;;;;;;;5019964;28;20180;-74
2023/04/27 12:10:58;;;;;;;3.57;2.50;;;;;;;;;;5024266;28;20249;-75
2023/04/27 12:13:25;;;;;;;4.93;2.30;;;;;;;;;;5021944;28;20211;-75
2023/04/27 12:15:51;;;;;;;3.70;2.27;;;;;;;;;;5024596;28;20257;-74
2023/04/27 12:18:17;;;;;;;3.97;2.23;;;;;;;;;;5021677;28;20199;-75
2023/04/27 12:20:43;;;;;;;4.33;2.30;;;;;;;;;;5025777;28;20672;-75
2023/04/27 12:23:10;;;;;;;4.93;2.40;;;;;;;;;;5027026;28;20192;-75
2023/04/27 12:25:36;;;;;;;5.00;2.37;;;;;;;;;;5022518;28;20216;-76
2023/04/27 12:28:02;;;;;;;4.57;2.53;;;;;;;;;;5024549;28;20181;-75
2023/04/27 12:30:28;;;;;;;5.47;2.80;;;;;;;;;;5027503;28;20196;-75
2023/04/27 12:32:54;;;;;;;5.47;2.80;;;;;;;;;;5024601;28;20281;-75
2023/04/27 12:35:21;;;;;;;3.60;2.50;;;;;;;;;;5026426;28;20195;-75
2023/04/27 12:37:48;;;;;;;3.80;2.30;;;;;;;;;;5026774;28;20297;-75
2023/04/27 12:40:15;;;;;;;5.53;2.40;;;;;;;;;;5028970;28;20212;-75
2023/04/27 12:42:41;;;;;;;3.27;2.53;;;;;;;;;;5022111;28;20328;-75
2023/04/27 12:45:07;;;;;;;4.73;2.33;;;;;;;;;;5025853;28;20191;-76
2023/04/27 12:47:33;;;;;;;5.33;2.50;;;;;;;;;;5026986;28;20313;-76
2023/04/27 12:50:00;;;;;;;5.90;2.53;;;;;;;;;;5023939;28;20274;-75
2023/04/27 12:52:27;;;;;;;5.53;2.90;;;;;;;;;;5026931;28;20220;-75
2023/04/27 12:54:56;;;;;;;3.27;2.27;;;;;;;;;;5025197;28;20291;-74
2023/04/27 12:57:22;;;;;;;7.27;2.70;;;;;;;;;;5024324;28;20267;-78
2023/04/27 12:59:48;;;;;;;6.00;3.00;;;;;;;;;;5024673;28;20201;-76
2023/04/27 13:02:15;;;;;;;7.73;2.90;;;;;;;;;;5022202;28;20613;-78
2023/04/27 13:04:41;;;;;;;5.83;2.87;;;;;;;;;;5030987;28;20604;-76
2023/04/27 13:07:07;;;;;;;4.20;2.63;;;;;;;;;;5031285;28;20280;-76
2023/04/27 13:09:35;;;;;;;5.10;2.70;;;;;;;;;;5025797;28;20210;-76
2023/04/27 13:12:01;;;;;;;4.73;2.67;;;;;;;;;;5018739;28;20194;-76
2023/04/27 13:14:27;;;;;;;4.30;2.77;;;;;;;;;;5021524;28;20187;-76
2023/04/27 13:16:53;;;;;;;5.20;2.70;;;;;;;;;;5014289;28;20218;-76
2023/04/27 13:19:20;;;;;;;3.80;2.80;;;;;;;;;;5031242;28;20210;-76
2023/04/27 13:21:46;;;;;;;3.33;2.47;;;;;;;;;;5029241;28;20183;-76
2023/04/27 13:24:12;;;;;;;4.40;2.50;;;;;;;;;;5025565;28;20633;-76
2023/04/27 13:26:38;;;;;;;5.17;2.73;;;;;;;;;;5033006;28;20208;-76
2023/04/27 13:29:04;;;;;;;4.73;2.90;;;;;;;;;;5030069;28;20590;-76
2023/04/27 13:31:31;;;;;;;5.43;2.80;;;;;;;;;;5041711;28;20235;-76
2023/04/27 13:33:58;;;;;;;8.07;3.27;;;;;;;;;;5034116;28;20601;-76
2023/04/27 13:36:24;;;;;;;3.73;2.80;;;;;;;;;;5026653;28;20300;-76
2023/04/27 13:38:50;;;;;;;3.63;2.73;;;;;;;;;;5034954;28;20187;-76
2023/04/27 13:41:16;;;;;;;5.53;3.10;;;;;;;;;;5026011;28;20193;-76
2023/04/27 13:43:42;;;;;;;4.93;3.33;;;;;;;;;;5040103;28;20323;-76
2023/04/27 13:46:09;;;;;;;4.70;2.87;;;;;;;;;;5030444;28;20221;-76
2023/04/27 13:48:35;;;;;;;3.27;2.50;;;;;;;;;;5027799;28;20186;-76
2023/04/27 13:51:01;;;;;;;4.33;2.80;;;;;;;;;;5029985;28;20270;-76
2023/04/27 13:53:27;;;;;;;10.73;3.20;;;;;;;;;;5022531;28;20179;-79
2023/04/27 13:55:54;;;;;;;3.70;2.87;;;;;;;;;;5011959;28;20226;-76
2023/04/27 13:58:21;;;;;;;5.27;3.03;;;;;;;;;;5031595;28;20182;-76
2023/04/27 14:00:47;;;;;;;4.87;2.97;;;;;;;;;;5033035;28;20179;-76
2023/04/27 14:03:15;;;;;;;7.63;2.80;;;;;;;;;;5030381;28;20210;-76
2023/04/27 14:05:42;;;;;;;6.40;3.37;;;;;;;;;;5031811;28;20205;-76
2023/04/27 14:08:08;;;;;;;5.13;3.23;;;;;;;;;;5024485;28;20247;-76
2023/04/27 14:10:35;;;;;;;6.50;3.60;;;;;;;;;;5032913;28;20189;-76
2023/04/27 14:13:02;;;;;;;5.20;3.10;;;;;;;;;;5016690;28;20267;-78
2023/04/27 14:15:28;;;;;;;6.33;3.50;;;;;;;;;;5032987;28;20219;-76
2023/04/27 14:17:54;;;;;;;4.87;3.30;;;;;;;;;;5026366;28;20214;-76
2023/04/27 14:20:20;;;;;;;6.17;3.50;;;;;;;;;;5027625;28;20212;-76
2023/04/27 14:22:47;;;;;;;4.83;3.00;;;;;;;;;;5021708;28;20239;-76
2023/04/27 14:25:13;;;;;;;5.93;3.60;;;;;;;;;;5034337;28;20189;-76
2023/04/27 14:27:39;;;;;;;3.63;3.20;;;;;;;;;;5029119;28;20195;-76
2023/04/27 14:30:06;;;;;;;5.70;3.33;;;;;;;;;;5028454;28;20224;-76
2023/04/27 14:32:32;;;;;;;4.80;3.30;;;;;;;;;;5034728;28;20244;-77
2023/04/27 14:34:58;;;;;;;7.73;3.73;;;;;;;;;;5033009;28;20184;-77
2023/04/27 14:37:25;;;;;;;7.23;3.77;;;;;;;;;;5033326;28;20687;-77
2023/04/27 14:39:51;;;;;;;6.13;3.80;;;;;;;;;;5034240;28;20735;-77
2023/04/27 14:42:17;;;;;;;4.40;3.40;;;;;;;;;;5022013;28;20202;-77